Time;durP1;ratioP1;P1;durP2;ratioP2;P2;SDS_P1;SDS_P2;PMS_P1;PMS_P2;Temp;Humidity;BMP_temperature;BMP_pressure;BME280_temperature;BME280_humidity;BME280_pressure;Samples;Min_cycle;Max_cycle;Signal;HPM_P1;HPM_P2
2022/01/26 00:07:32;;;;;;;46.55;22.20;;;5.30;72.40;;;;;;5064261;28;20040;-76
2022/01/26 00:09:59;;;;;;;47.40;23.40;;;5.30;72.40;;;;;;5070510;28;20032;-76
2022/01/26 00:12:24;;;;;;;49.72;23.92;;;5.20;72.40;;;;;;5066820;28;20084;-76
2022/01/26 00:14:50;;;;;;;50.58;22.88;;;5.20;73.00;;;;;;5070320;28;20044;-76
2022/01/26 00:17:15;;;;;;;46.08;22.10;;;5.20;72.40;;;;;;5071389;28;20020;-76
2022/01/26 00:20:10;;;;;;;44.83;22.48;;;5.20;72.50;;;;;;5069602;28;20047;-77
2022/01/26 00:38:41;;;;;;;40.63;19.88;;;5.10;72.40;;;;;;5065885;28;20056;-77
2022/01/26 00:41:12;;;;;;;37.90;18.45;;;5.10;72.40;;;;;;5061753;28;20021;-76
2022/01/26 00:43:49;;;;;;;43.38;20.60;;;5.10;72.40;;;;;;5068307;28;20048;-77
2022/01/26 00:46:15;;;;;;;46.83;21.48;;;5.10;72.40;;;;;;5067417;28;20494;-76
2022/01/26 00:48:42;;;;;;;45.47;20.83;;;5.10;72.40;;;;;;5066849;28;20032;-77
2022/01/26 00:51:10;;;;;;;43.08;20.17;;;5.10;72.30;;;;;;5054616;28;20023;-76
2022/01/26 00:53:43;;;;;;;49.25;23.83;;;5.10;72.40;;;;;;5070726;28;20398;-76
2022/01/26 00:56:08;;;;;;;49.13;22.80;;;5.10;72.30;;;;;;5057440;28;20047;-75
2022/01/26 00:58:34;;;;;;;48.45;22.13;;;5.00;72.30;;;;;;5052380;28;20025;-77
2022/01/26 01:01:02;;;;;;;47.45;22.30;;;5.00;72.40;;;;;;5063746;28;20463;-78
2022/01/26 01:03:30;;;;;;;41.78;19.63;;;5.00;72.40;;;;;;5072162;28;20048;-78
2022/01/26 01:06:03;;;;;;;44.97;20.83;;;5.10;72.40;;;;;;5063222;28;20125;-78
2022/01/26 01:08:29;;;;;;;47.03;21.02;;;5.10;72.40;;;;;;5071242;28;20516;-78
2022/01/26 01:10:57;;;;;;;46.53;22.63;;;5.10;72.40;;;;;;5062099;28;20111;-77
2022/01/26 01:13:33;;;;;;;47.20;22.45;;;5.10;72.80;;;;;;5066963;28;20067;-78
2022/01/26 01:15:59;;;;;;;53.10;24.40;;;5.00;72.10;;;;;;5056263;28;20033;-78
2022/01/26 01:18:38;;;;;;;47.15;22.05;;;5.00;72.20;;;;;;5070580;28;20029;-78
2022/01/26 01:26:47;;;;;;;45.63;20.60;;;5.00;72.30;;;;;;5067929;28;20032;-79
2022/01/26 01:29:26;;;;;;;53.00;24.48;;;5.00;72.30;;;;;;5069467;28;20459;-78
2022/01/26 01:31:58;;;;;;;43.70;21.30;;;4.90;72.20;;;;;;5062644;28;20032;-79
2022/01/26 01:34:27;;;;;;;51.95;24.58;;;4.90;72.30;;;;;;5050281;28;20031;-78
2022/01/26 01:37:05;;;;;;;45.35;21.25;;;4.80;72.30;;;;;;5074058;28;20035;-78
2022/01/26 01:39:33;;;;;;;46.10;21.90;;;4.80;72.40;;;;;;5080243;28;20136;-78
2022/01/26 01:41:59;;;;;;;42.00;19.70;;;4.70;72.50;;;;;;5060721;28;20029;-77
2022/01/26 01:44:25;;;;;;;45.45;21.55;;;4.60;72.50;;;;;;5057051;28;20032;-77
2022/01/26 01:46:51;;;;;;;42.40;20.05;;;4.60;72.70;;;;;;5069394;28;20426;-77
2022/01/26 01:49:17;;;;;;;53.20;25.35;;;4.60;72.70;;;;;;5058697;28;20112;-77
2022/01/26 01:51:49;;;;;;;44.08;20.88;;;4.60;72.60;;;;;;5069955;28;20016;-77
2022/01/26 01:54:17;;;;;;;43.17;20.75;;;4.70;72.70;;;;;;5070647;28;20103;-78
2022/01/26 01:56:45;;;;;;;37.03;17.90;;;4.60;72.60;;;;;;5069410;28;20013;-77
2022/01/26 01:59:11;;;;;;;40.45;19.38;;;4.70;72.60;;;;;;5070867;28;20052;-77
2022/01/26 02:01:37;;;;;;;36.75;17.92;;;4.70;72.60;;;;;;5061777;28;20060;-78
2022/01/26 02:04:03;;;;;;;40.45;18.98;;;4.70;72.60;;;;;;5069572;28;20012;-78
2022/01/26 02:06:28;;;;;;;46.08;21.65;;;4.70;72.60;;;;;;5060331;28;20025;-79
2022/01/26 02:08:54;;;;;;;40.15;19.20;;;4.70;72.50;;;;;;5070275;28;20371;-77
2022/01/26 02:11:20;;;;;;;38.95;17.63;;;4.70;72.40;;;;;;5070310;28;20599;-77
2022/01/26 02:14:09;;;;;;;36.88;18.33;;;4.80;72.50;;;;;;5068257;28;20036;-77
2022/01/26 03:02:22;;;;;;;40.30;18.98;;;5.00;72.50;;;;;;5059846;28;20050;-78
2022/01/26 03:04:51;;;;;;;43.85;20.83;;;5.00;72.50;;;;;;5066517;28;20025;-79
2022/01/26 03:07:38;;;;;;;41.33;20.40;;;5.00;72.50;;;;;;5067023;28;20032;-78
2022/01/26 03:10:12;;;;;;;40.80;19.65;;;5.10;72.50;;;;;;5061730;28;20040;-77
2022/01/26 03:12:49;;;;;;;43.03;19.90;;;5.10;72.50;;;;;;5057105;28;20150;-77
2022/01/26 03:15:29;;;;;;;41.67;19.33;;;5.10;72.40;;;;;;5066962;28;20039;-78
2022/01/26 03:20:23;;;;;;;43.42;19.83;;;5.10;72.40;;;;;;5049317;28;20041;-78
2022/01/26 03:28:22;;;;;;;36.38;17.80;;;5.10;72.40;;;;;;5071052;28;20032;-77
2022/01/26 03:33:51;;;;;;;42.60;20.20;;;5.00;72.50;;;;;;5075093;28;20387;-77
2022/01/26 03:36:13;;;;;;;44.88;20.67;;;5.00;72.50;;;;;;5057686;28;20504;-76
2022/01/26 03:38:45;;;;;;;41.95;21.10;;;5.00;72.50;;;;;;5058371;28;20170;-77
2022/01/26 03:41:29;;;;;;;56.33;26.90;;;5.00;72.50;;;;;;5068527;28;20040;-77
2022/01/26 03:43:54;;;;;;;48.47;23.92;;;5.00;72.40;;;;;;5056831;28;20025;-78
2022/01/26 03:46:20;;;;;;;65.60;31.58;;;4.90;72.50;;;;;;5049169;28;20479;-78
2022/01/26 03:48:45;;;;;;;52.00;24.77;;;4.90;72.40;;;;;;5058583;28;20111;-79
2022/01/26 03:51:11;;;;;;;49.75;24.08;;;4.90;72.60;;;;;;5068296;28;20033;-78
2022/01/26 03:53:36;;;;;;;43.25;21.65;;;4.90;72.60;;;;;;5070509;28;20471;-80
2022/01/26 03:56:02;;;;;;;47.03;22.35;;;4.90;72.60;;;;;;5068163;28;20024;-77
2022/01/26 03:58:28;;;;;;;45.03;21.63;;;4.90;72.60;;;;;;5069637;28;20418;-76
2022/01/26 04:00:54;;;;;;;45.15;21.08;;;4.90;72.80;;;;;;5066780;28;20063;-76
2022/01/26 04:03:19;;;;;;;50.30;24.42;;;4.90;72.80;;;;;;5063207;28;20432;-76
2022/01/26 04:05:45;;;;;;;52.88;24.77;;;4.90;72.80;;;;;;5062403;28;20029;-76
2022/01/26 04:08:17;;;;;;;51.05;24.48;;;4.90;72.90;;;;;;5068016;28;20024;-76
2022/01/26 04:13:11;;;;;;;53.20;25.00;;;4.90;72.90;;;;;;5063393;28;20028;-76
2022/01/26 04:15:37;;;;;;;51.20;24.77;;;4.90;73.50;;;;;;5069018;28;20070;-75
2022/01/26 04:18:07;;;;;;;58.88;27.70;;;4.90;72.90;;;;;;5063781;28;20119;-77
2022/01/26 04:20:38;;;;;;;61.67;29.50;;;4.90;72.80;;;;;;5066378;28;20032;-78
2022/01/26 04:23:11;;;;;;;56.53;26.58;;;4.90;72.90;;;;;;5067116;28;20390;-76
2022/01/26 04:25:38;;;;;;;45.78;22.67;;;4.90;72.90;;;;;;5060644;28;20055;-75
2022/01/26 04:28:08;;;;;;;52.97;25.15;;;5.00;72.90;;;;;;5066891;28;20020;-76
2022/01/26 04:30:33;;;;;;;50.58;23.65;;;4.90;72.80;;;;;;5068047;28;20021;-76
2022/01/26 04:33:03;;;;;;;48.85;22.42;;;5.00;72.90;;;;;;5051929;28;20369;-77
2022/01/26 04:35:29;;;;;;;46.05;21.85;;;5.10;72.90;;;;;;5080274;28;20078;-76
2022/01/26 04:38:14;;;;;;;52.08;23.90;;;5.10;72.80;;;;;;5073716;28;20028;-76
2022/01/26 04:40:51;;;;;;;61.58;28.58;;;5.10;72.80;;;;;;5082223;28;20067;-76
2022/01/26 04:43:21;;;;;;;61.20;29.60;;;5.10;72.80;;;;;;5065159;28;20031;-77
2022/01/26 04:45:47;;;;;;;52.88;26.15;;;5.00;72.80;;;;;;5070170;28;20055;-76
2022/01/26 04:48:12;;;;;;;61.60;29.67;;;5.00;72.90;;;;;;5053558;28;20597;-77
2022/01/26 04:50:38;;;;;;;63.40;30.60;;;5.00;72.90;;;;;;5052654;28;20031;-77
2022/01/26 04:53:03;;;;;;;69.25;31.58;;;5.00;72.90;;;;;;5071557;28;20023;-77
2022/01/26 04:55:29;;;;;;;60.38;29.83;;;4.90;72.90;;;;;;5060169;28;20444;-77
2022/01/26 04:57:54;;;;;;;64.85;30.55;;;4.90;73.00;;;;;;5068951;28;20024;-78
2022/01/26 05:00:20;;;;;;;63.75;29.55;;;4.90;73.00;;;;;;5069512;28;20483;-77
2022/01/26 05:02:46;;;;;;;70.55;34.30;;;4.90;73.10;;;;;;5071016;28;20506;-77
2022/01/26 05:05:12;;;;;;;70.47;33.22;;;4.80;73.00;;;;;;5062955;28;20048;-78
2022/01/26 05:07:38;;;;;;;71.70;32.80;;;4.80;73.20;;;;;;5068013;28;20084;-77
2022/01/26 05:10:04;;;;;;;61.30;28.58;;;4.80;73.30;;;;;;5070959;28;20051;-77
2022/01/26 05:12:30;;;;;;;58.40;27.73;;;4.80;73.30;;;;;;5054622;28;20061;-78
2022/01/26 05:14:56;;;;;;;57.78;27.27;;;4.80;73.30;;;;;;5071630;28;20021;-76
2022/01/26 05:17:23;;;;;;;54.67;25.83;;;4.90;73.30;;;;;;5069852;28;20020;-76
2022/01/26 05:19:54;;;;;;;67.07;30.70;;;4.90;73.30;;;;;;5071273;28;20024;-76
2022/01/26 05:22:19;;;;;;;61.92;29.13;;;4.90;73.30;;;;;;5062795;28;20032;-76
2022/01/26 05:24:45;;;;;;;63.15;29.90;;;4.80;73.30;;;;;;5069130;28;20036;-75
2022/01/26 05:27:10;;;;;;;53.42;25.73;;;4.80;73.30;;;;;;5064041;28;20028;-76
2022/01/26 05:29:36;;;;;;;69.18;33.25;;;4.90;73.40;;;;;;5070201;28;20507;-76
2022/01/26 05:32:01;;;;;;;75.55;35.15;;;4.90;73.40;;;;;;5075288;28;20127;-77
2022/01/26 05:34:27;;;;;;;60.45;27.42;;;4.80;73.40;;;;;;5068990;28;20074;-77
2022/01/26 05:36:53;;;;;;;55.53;26.33;;;4.80;73.60;;;;;;5076792;28;20016;-77
2022/01/26 05:39:18;;;;;;;75.18;35.22;;;4.80;73.60;;;;;;5068543;28;20033;-76
2022/01/26 05:41:44;;;;;;;73.25;35.42;;;4.80;73.60;;;;;;5065679;28;20020;-76
2022/01/26 05:44:09;;;;;;;73.55;35.10;;;4.80;73.70;;;;;;5056924;28;20025;-76
2022/01/26 05:46:53;;;;;;;71.40;34.10;;;4.80;73.70;;;;;;5070559;28;20103;-76
2022/01/26 05:49:18;;;;;;;71.72;33.55;;;4.80;73.90;;;;;;5068648;28;20033;-76
2022/01/26 05:51:47;;;;;;;60.75;27.05;;;4.70;74.00;;;;;;5060842;28;20036;-77
2022/01/26 05:54:15;;;;;;;68.28;31.58;;;4.80;74.00;;;;;;5064447;28;20100;-77
2022/01/26 05:56:42;;;;;;;72.78;33.45;;;4.70;74.00;;;;;;5069268;28;20047;-76
2022/01/26 05:59:09;;;;;;;71.47;33.88;;;4.70;74.10;;;;;;5064998;28;20629;-76
2022/01/26 06:01:35;;;;;;;76.57;36.70;;;4.70;74.20;;;;;;5064281;28;20032;-75
2022/01/26 06:04:00;;;;;;;67.30;31.83;;;4.70;74.10;;;;;;5071257;28;20028;-75
2022/01/26 06:06:26;;;;;;;56.97;26.85;;;4.70;74.20;;;;;;5065104;28;20029;-75
2022/01/26 06:08:51;;;;;;;65.15;31.80;;;4.80;74.30;;;;;;5065107;28;20119;-76
2022/01/26 06:11:17;;;;;;;60.38;28.48;;;4.80;74.30;;;;;;5061958;28;20032;-75
2022/01/26 06:13:42;;;;;;;55.90;26.58;;;4.80;74.40;;;;;;5059978;28;20032;-74
2022/01/26 06:16:08;;;;;;;70.10;31.77;;;4.80;74.40;;;;;;5063296;28;20043;-74
2022/01/26 06:18:34;;;;;;;67.55;31.33;;;4.80;74.40;;;;;;5070821;28;20055;-74
2022/01/26 06:21:00;;;;;;;79.03;37.72;;;4.70;74.30;;;;;;5071711;28;20028;-74
2022/01/26 06:23:26;;;;;;;70.22;33.50;;;4.70;74.40;;;;;;5074058;28;20111;-73
2022/01/26 06:25:56;;;;;;;76.18;35.53;;;4.70;74.50;;;;;;5075394;28;20020;-73
2022/01/26 06:28:27;;;;;;;66.47;31.55;;;4.70;75.30;;;;;;5071225;28;20043;-73
2022/01/26 06:31:03;;;;;;;70.72;33.33;;;4.60;74.70;;;;;;5059158;28;20047;-73
2022/01/26 06:33:32;;;;;;;56.22;26.52;;;4.60;74.80;;;;;;5066635;28;20017;-72
2022/01/26 06:35:59;;;;;;;68.10;31.45;;;4.70;74.90;;;;;;5062171;28;20067;-73
2022/01/26 06:38:27;;;;;;;80.63;36.92;;;4.60;74.80;;;;;;5073782;28;20107;-73
2022/01/26 06:40:54;;;;;;;71.50;34.00;;;4.60;74.90;;;;;;5068420;28;20119;-73
2022/01/26 06:43:21;;;;;;;71.90;33.55;;;4.60;75.10;;;;;;5073079;28;20028;-74
2022/01/26 06:45:51;;;;;;;61.55;30.13;;;4.60;75.20;;;;;;5062255;28;20037;-73
2022/01/26 06:50:51;;;;;;;60.50;29.40;;;4.60;75.30;;;;;;5073189;28;20040;-73
2022/01/26 06:53:17;;;;;;;74.63;34.42;;;4.60;75.40;;;;;;5070648;28;20016;-73
2022/01/26 06:55:42;;;;;;;80.30;38.33;;;4.50;75.30;;;;;;5068204;28;20059;-74
2022/01/26 06:58:08;;;;;;;69.75;32.60;;;4.50;75.50;;;;;;5066726;28;20106;-73
2022/01/26 07:00:33;;;;;;;69.80;33.90;;;4.50;75.60;;;;;;5067582;28;20048;-73
2022/01/26 07:02:59;;;;;;;72.38;33.88;;;4.50;75.70;;;;;;5061722;28;20445;-74
2022/01/26 07:05:25;;;;;;;67.22;31.75;;;4.60;75.70;;;;;;5067358;28;20490;-74
2022/01/26 07:07:50;;;;;;;72.28;32.50;;;4.50;75.60;;;;;;5067754;28;20020;-74
2022/01/26 07:10:16;;;;;;;62.42;28.77;;;4.50;75.70;;;;;;5059276;28;20021;-74
2022/01/26 07:12:42;;;;;;;68.53;31.75;;;4.60;75.70;;;;;;5060609;28;20063;-74
2022/01/26 07:23:06;;;;;;;75.07;33.95;;;4.50;75.80;;;;;;5060184;28;20044;-74
2022/01/26 07:25:32;;;;;;;79.10;36.10;;;4.50;76.00;;;;;;5061574;28;20411;-73
2022/01/26 07:27:58;;;;;;;79.00;36.33;;;4.50;76.00;;;;;;5064171;28;20104;-74
2022/01/26 07:30:24;;;;;;;68.78;31.58;;;4.50;76.10;;;;;;5069689;28;20016;-73
2022/01/26 07:32:50;;;;;;;72.18;33.45;;;4.50;76.20;;;;;;5058077;28;20033;-73
2022/01/26 07:35:15;;;;;;;86.20;37.60;;;4.50;76.20;;;;;;5054476;28;20474;-72
2022/01/26 07:37:43;;;;;;;82.28;36.95;;;4.50;76.40;;;;;;5065651;28;20032;-73
2022/01/26 07:40:10;;;;;;;71.40;32.28;;;4.50;76.50;;;;;;5066274;28;20050;-74
2022/01/26 07:42:36;;;;;;;59.63;27.40;;;4.40;76.50;;;;;;5060733;28;20024;-73
2022/01/26 07:45:05;;;;;;;78.28;34.97;;;4.50;76.60;;;;;;5061035;28;20034;-75
2022/01/26 07:47:32;;;;;;;76.82;33.75;;;4.40;76.60;;;;;;5064991;28;20013;-74
2022/01/26 07:50:02;;;;;;;63.88;29.10;;;4.50;76.70;;;;;;5063434;28;20032;-74
2022/01/26 07:52:32;;;;;;;71.05;31.17;;;4.50;76.70;;;;;;5062258;28;20012;-73
2022/01/26 07:54:58;;;;;;;70.28;31.27;;;4.50;76.70;;;;;;5057980;28;20108;-75
2022/01/26 07:57:25;;;;;;;54.70;24.77;;;4.50;76.80;;;;;;5065172;28;20107;-75
2022/01/26 07:59:52;;;;;;;73.70;32.85;;;4.50;76.80;;;;;;5059749;28;20094;-75
2022/01/26 08:02:18;;;;;;;61.22;27.73;;;4.50;76.90;;;;;;5052105;28;20029;-74
2022/01/26 08:04:43;;;;;;;64.80;27.73;;;4.50;77.00;;;;;;5066086;28;20066;-75
2022/01/26 08:07:09;;;;;;;67.22;30.08;;;4.50;77.10;;;;;;5062711;28;20032;-75
2022/01/26 08:09:34;;;;;;;68.45;29.45;;;4.50;77.10;;;;;;5070884;28;20096;-75
2022/01/26 08:12:00;;;;;;;85.53;37.13;;;4.60;77.90;;;;;;5059453;28;20028;-75
2022/01/26 08:14:25;;;;;;;72.40;31.90;;;4.50;77.40;;;;;;5059293;28;20051;-75
2022/01/26 08:16:51;;;;;;;64.63;28.08;;;4.50;77.40;;;;;;5065010;28;20475;-73
2022/01/26 08:19:18;;;;;;;73.95;33.20;;;4.60;77.50;;;;;;5058138;28;20072;-72
2022/01/26 08:21:43;;;;;;;73.68;31.88;;;4.60;77.50;;;;;;5066719;28;20039;-72
2022/01/26 08:24:14;;;;;;;63.78;29.52;;;4.50;77.60;;;;;;5051645;28;20507;-75
2022/01/26 08:26:45;;;;;;;68.82;31.23;;;4.60;77.80;;;;;;5052507;28;20100;-73
2022/01/26 08:29:37;;;;;;;74.38;32.10;;;4.50;77.90;;;;;;5064508;28;20055;-74
2022/01/26 08:32:00;;;;;;;61.00;26.38;;;4.60;78.10;;;;;;5064225;28;20025;-74
2022/01/26 08:34:26;;;;;;;62.38;27.95;;;4.60;78.20;;;;;;5074306;28;20020;-73
2022/01/26 08:36:51;;;;;;;71.07;32.33;;;4.60;78.20;;;;;;5074452;28;20024;-74
2022/01/26 08:39:17;;;;;;;67.22;29.67;;;4.60;78.20;;;;;;5061612;28;20025;-74
2022/01/26 08:41:43;;;;;;;71.90;32.88;;;4.60;78.30;;;;;;5076276;28;20032;-74
2022/01/26 08:44:09;;;;;;;72.30;33.10;;;4.70;78.30;;;;;;5065160;28;20021;-74
2022/01/26 08:46:35;;;;;;;70.32;29.92;;;4.60;78.40;;;;;;5064647;28;20017;-75
2022/01/26 08:49:03;;;;;;;55.28;24.60;;;4.60;78.50;;;;;;5063680;28;20063;-74
2022/01/26 08:51:28;;;;;;;64.03;29.75;;;4.70;78.50;;;;;;5059951;28;20384;-75
2022/01/26 08:53:54;;;;;;;65.68;28.10;;;4.70;78.50;;;;;;5054372;28;20021;-74
2022/01/26 08:56:19;;;;;;;67.43;29.13;;;4.70;78.60;;;;;;5065234;28;20025;-73
2022/01/26 08:58:45;;;;;;;66.60;29.17;;;4.70;78.80;;;;;;5061062;28;20025;-74
2022/01/26 09:01:11;;;;;;;64.05;28.77;;;4.70;78.90;;;;;;5062296;28;20049;-74
2022/01/26 09:03:39;;;;;;;67.03;30.50;;;4.70;78.90;;;;;;5065846;28;20060;-75
2022/01/26 09:06:06;;;;;;;66.32;29.45;;;4.70;78.90;;;;;;5063462;28;20024;-75
2022/01/26 09:08:33;;;;;;;62.40;27.95;;;4.70;78.90;;;;;;5063802;28;20073;-74
2022/01/26 09:11:01;;;;;;;52.15;25.05;;;4.70;79.00;;;;;;5062591;28;20516;-74
2022/01/26 09:13:33;;;;;;;56.50;27.15;;;4.80;79.10;;;;;;5060541;28;20028;-81
2022/01/26 09:16:00;;;;;;;65.77;28.97;;;4.80;79.10;;;;;;5055604;28;20031;-79
2022/01/26 09:18:50;;;;;;;61.47;28.15;;;4.70;79.10;;;;;;5059854;28;20017;-79
2022/01/26 09:21:15;;;;;;;63.67;28.73;;;4.80;79.30;;;;;;5075509;28;20582;-74
2022/01/26 09:23:41;;;;;;;60.55;28.30;;;4.80;79.30;;;;;;5075547;28;20024;-74
2022/01/26 09:26:07;;;;;;;58.80;27.75;;;4.80;79.30;;;;;;5079174;28;20036;-73
2022/01/26 09:28:32;;;;;;;46.95;21.98;;;4.90;79.40;;;;;;5077023;28;20024;-73
2022/01/26 09:30:58;;;;;;;69.38;30.27;;;4.90;79.30;;;;;;5071467;28;20111;-74
2022/01/26 09:33:23;;;;;;;58.65;27.13;;;4.90;79.40;;;;;;5070326;28;20071;-73
2022/01/26 09:35:49;;;;;;;52.35;24.67;;;4.90;79.40;;;;;;5078669;28;20136;-73
2022/01/26 09:38:16;;;;;;;50.40;23.73;;;4.90;79.40;;;;;;5075115;28;20028;-72
2022/01/26 09:40:43;;;;;;;53.97;24.02;;;5.00;79.50;;;;;;5063331;28;20029;-73
2022/01/26 09:43:10;;;;;;;58.70;27.08;;;4.90;79.40;;;;;;5056752;28;20047;-72
2022/01/26 09:45:36;;;;;;;65.30;31.02;;;5.00;79.50;;;;;;5062832;28;20403;-73
2022/01/26 09:48:03;;;;;;;59.08;26.92;;;4.90;79.50;;;;;;5066442;28;20013;-73
2022/01/26 09:50:29;;;;;;;46.88;21.83;;;5.00;79.70;;;;;;5060766;28;20649;-73
2022/01/26 09:52:55;;;;;;;49.97;22.50;;;5.10;79.60;;;;;;5063708;28;20037;-73
2022/01/26 09:55:21;;;;;;;52.40;25.58;;;5.10;79.50;;;;;;5059035;28;20017;-73
2022/01/26 09:57:47;;;;;;;52.00;25.48;;;5.00;79.40;;;;;;5060843;28;20035;-73
2022/01/26 10:00:14;;;;;;;46.65;22.65;;;5.10;79.40;;;;;;5067343;28;20060;-73
2022/01/26 10:02:41;;;;;;;45.33;21.73;;;5.10;79.40;;;;;;5058644;28;20549;-73
2022/01/26 10:05:10;;;;;;;35.75;18.10;;;5.20;79.40;;;;;;5069221;28;20166;-73
2022/01/26 10:07:56;;;;;;;53.08;25.63;;;5.20;79.30;;;;;;5062772;28;20056;-73
2022/01/26 10:15:54;;;;;;;47.53;25.02;;;5.20;79.20;;;;;;5069588;28;20129;-73
2022/01/26 10:18:21;;;;;;;44.08;20.77;;;5.20;79.10;;;;;;5063697;28;20360;-74
2022/01/26 10:20:58;;;;;;;41.20;20.33;;;5.30;79.20;;;;;;5056797;28;20041;-73
2022/01/26 10:23:26;;;;;;;44.42;21.88;;;5.30;79.10;;;;;;5058645;28;20042;-73
2022/01/26 10:26:02;;;;;;;43.22;22.80;;;5.40;79.10;;;;;;5060558;28;20024;-73
2022/01/26 10:28:47;;;;;;;46.97;24.75;;;5.40;79.00;;;;;;5059711;28;20021;-73
2022/01/26 10:31:16;;;;;;;42.88;22.90;;;5.30;79.00;;;;;;5073428;28;20356;-73
2022/01/26 10:33:58;;;;;;;42.53;22.98;;;5.30;78.90;;;;;;5064046;28;20033;-73
2022/01/26 10:36:25;;;;;;;42.83;23.17;;;5.30;79.00;;;;;;5061585;28;20467;-73
2022/01/26 10:39:07;;;;;;;44.17;23.55;;;5.30;79.00;;;;;;5064437;28;20453;-74
2022/01/26 10:41:35;;;;;;;48.47;24.67;;;5.30;79.00;;;;;;5062990;28;20063;-73
2022/01/26 10:44:02;;;;;;;40.70;22.10;;;5.30;79.00;;;;;;5060257;28;20017;-73
2022/01/26 10:46:36;;;;;;;41.17;21.92;;;5.30;79.00;;;;;;5057930;28;20028;-73
2022/01/26 10:54:22;;;;;;;36.80;20.40;;;5.30;78.90;;;;;;5068056;28;20100;-73
2022/01/26 10:56:49;;;;;;;35.28;19.10;;;5.30;78.80;;;;;;5073708;28;20055;-73
2022/01/26 10:59:16;;;;;;;37.40;19.80;;;5.40;78.80;;;;;;5071003;28;20035;-72
2022/01/26 11:01:42;;;;;;;32.90;17.83;;;5.40;78.70;;;;;;5069535;28;20028;-73
2022/01/26 11:04:08;;;;;;;32.10;16.67;;;5.40;78.60;;;;;;5074289;28;20027;-73
2022/01/26 11:06:36;;;;;;;39.20;19.75;;;5.50;78.60;;;;;;5066994;28;20487;-74
2022/01/26 11:09:08;;;;;;;33.22;17.17;;;5.50;78.60;;;;;;5070625;28;20059;-72
2022/01/26 11:11:34;;;;;;;32.95;17.40;;;5.50;78.50;;;;;;5070398;28;20012;-73
2022/01/26 11:14:00;;;;;;;36.33;18.65;;;5.50;78.40;;;;;;5073341;28;20512;-73
2022/01/26 11:16:25;;;;;;;40.17;20.13;;;5.50;78.30;;;;;;5066367;28;20028;-72
2022/01/26 11:18:52;;;;;;;33.15;18.13;;;5.50;78.30;;;;;;5067762;28;20036;-73
2022/01/26 11:21:34;;;;;;;38.45;20.83;;;5.50;78.20;;;;;;5067188;28;20056;-72
2022/01/26 11:24:08;;;;;;;29.33;15.83;;;5.50;78.30;;;;;;5064862;28;20036;-72
2022/01/26 11:26:35;;;;;;;32.90;17.50;;;5.50;78.30;;;;;;5057491;28;20719;-72
2022/01/26 11:29:00;;;;;;;32.95;16.50;;;5.50;78.30;;;;;;5056366;28;20020;-72
2022/01/26 11:31:28;;;;;;;40.40;20.45;;;5.60;78.30;;;;;;5070910;28;20021;-71
2022/01/26 11:33:55;;;;;;;31.27;16.20;;;5.60;78.30;;;;;;5060949;28;20016;-73
2022/01/26 11:36:21;;;;;;;31.45;15.57;;;5.60;78.30;;;;;;5052238;28;20390;-73
2022/01/26 11:47:02;;;;;;;36.42;18.92;;;5.60;78.20;;;;;;5061375;28;20051;-73
2022/01/26 11:49:36;;;;;;;35.45;17.23;;;5.60;78.30;;;;;;5061239;28;20047;-74
2022/01/26 11:52:03;;;;;;;32.20;15.88;;;5.60;78.40;;;;;;5064199;28;20062;-74
2022/01/26 11:54:50;;;;;;;29.73;15.55;;;5.70;78.40;;;;;;5064623;28;20033;-74
2022/01/26 11:57:17;;;;;;;35.38;17.20;;;5.70;78.40;;;;;;5063478;28;20475;-74
2022/01/26 11:59:52;;;;;;;33.38;16.92;;;5.70;78.30;;;;;;5063392;28;20060;-74
2022/01/26 12:02:39;;;;;;;34.80;16.77;;;5.70;78.30;;;;;;5061750;28;20018;-72
2022/01/26 12:05:10;;;;;;;31.63;15.38;;;5.80;78.30;;;;;;5063830;28;20028;-73
2022/01/26 12:08:06;;;;;;;35.35;16.75;;;5.90;78.20;;;;;;5060422;28;20495;-72
2022/01/26 12:10:32;;;;;;;24.30;13.23;;;5.90;78.20;;;;;;5066903;28;20048;-73
2022/01/26 12:12:58;;;;;;;26.23;13.88;;;5.90;78.10;;;;;;5070921;28;20502;-73
2022/01/26 12:15:27;;;;;;;29.20;15.13;;;5.90;78.10;;;;;;5065236;28;20052;-73
2022/01/26 12:18:17;;;;;;;31.55;15.18;;;5.90;78.10;;;;;;5072658;28;20024;-73
2022/01/26 12:45:25;;;;;;;35.38;17.95;;;6.10;78.10;;;;;;5067272;28;21820;-72
2022/01/26 12:47:52;;;;;;;29.17;15.75;;;6.20;78.20;;;;;;5062084;28;20021;-72
2022/01/26 12:50:19;;;;;;;29.13;15.30;;;6.20;78.10;;;;;;5065351;28;20029;-71
2022/01/26 12:52:50;;;;;;;33.10;16.83;;;6.30;78.10;;;;;;5068116;28;20029;-72
2022/01/26 12:55:27;;;;;;;34.70;17.52;;;6.30;78.10;;;;;;5061739;28;20025;-72
2022/01/26 12:57:54;;;;;;;39.63;18.30;;;6.20;78.10;;;;;;5059168;28;20426;-72
2022/01/26 13:00:21;;;;;;;37.13;19.70;;;6.20;78.10;;;;;;5062591;28;20078;-72
2022/01/26 13:02:47;;;;;;;27.90;15.07;;;6.20;78.20;;;;;;5062639;28;20121;-72
2022/01/26 13:05:16;;;;;;;32.35;16.88;;;6.30;78.30;;;;;;5063245;28;20768;-73
2022/01/26 13:07:42;;;;;;;36.33;19.42;;;6.30;78.20;;;;;;5062861;28;20032;-73
2022/01/26 13:10:17;;;;;;;39.95;18.13;;;6.30;78.20;;;;;;5056984;28;20028;-72
2022/01/26 13:12:43;;;;;;;41.65;21.05;;;6.40;78.40;;;;;;5063718;28;20056;-74
2022/01/26 13:15:25;;;;;;;45.15;24.30;;;6.30;78.30;;;;;;5063642;28;20029;-72
2022/01/26 13:17:58;;;;;;;37.83;19.73;;;6.30;78.30;;;;;;5061727;28;20101;-73
2022/01/26 13:21:05;;;;;;;27.50;15.20;;;6.30;78.40;;;;;;5069410;28;20033;-74
2022/01/26 13:26:37;;;;;;;32.22;17.05;;;6.30;78.40;;;;;;5054506;28;20054;-74
2022/01/26 13:29:25;;;;;;;36.25;19.88;;;6.30;78.50;;;;;;5063223;28;20075;-73
2022/01/26 13:37:15;;;;;;;34.33;16.38;;;6.30;78.40;;;;;;5070218;28;20033;-75
2022/01/26 13:50:20;;;;;;;23.75;13.38;;;6.40;78.30;;;;;;5063952;28;20048;-74
2022/01/26 13:52:53;;;;;;;32.60;16.90;;;6.40;78.30;;;;;;5075039;28;20017;-74
2022/01/26 14:00:38;;;;;;;34.15;18.67;;;6.40;78.40;;;;;;5074131;28;20044;-75
2022/01/26 14:03:07;;;;;;;37.90;20.63;;;6.40;78.50;;;;;;5073606;28;20029;-75
2022/01/26 14:05:32;;;;;;;29.50;16.02;;;6.40;78.60;;;;;;5073423;28;20037;-74
2022/01/26 14:07:58;;;;;;;30.27;16.00;;;6.30;78.50;;;;;;5075496;28;20029;-75
2022/01/26 14:10:24;;;;;;;33.17;18.23;;;6.30;78.60;;;;;;5065653;28;20043;-74
2022/01/26 14:12:50;;;;;;;29.20;15.27;;;6.30;78.60;;;;;;5075643;28;20036;-78
2022/01/26 14:15:34;;;;;;;30.02;15.85;;;6.40;79.30;;;;;;5076403;28;20019;-78
2022/01/26 14:22:06;;;;;;;37.42;18.92;;;6.40;78.50;;;;;;5053204;28;20051;-77
2022/01/26 14:26:12;;;;;;;29.35;16.35;;;6.40;78.60;;;;;;5077609;28;20040;-73
2022/01/26 14:28:38;;;;;;;31.42;18.38;;;6.30;78.60;;;;;;5072820;28;20021;-74
2022/01/26 14:31:21;;;;;;;32.33;16.52;;;6.40;78.70;;;;;;5076384;28;20025;-74
2022/01/26 14:34:09;;;;;;;32.55;17.48;;;6.40;78.70;;;;;;5073374;28;20387;-73
2022/01/26 14:39:47;;;;;;;32.00;17.33;;;6.40;78.50;;;;;;5077626;28;20039;-74
2022/01/26 15:18:58;;;;;;;29.02;15.77;;;6.30;79.10;;;;;;5059909;28;20196;-73
2022/01/26 15:21:50;;;;;;;35.50;18.65;;;6.30;79.20;;;;;;5057049;28;20071;-74
2022/01/26 15:42:19;;;;;;;31.70;19.10;;;6.30;79.70;;;;;;5058741;28;20039;-74
2022/01/26 15:44:50;;;;;;;30.90;17.77;;;6.30;79.90;;;;;;5057741;28;20471;-73
2022/01/26 15:50:20;;;;;;;25.00;14.60;;;6.30;79.90;;;;;;5058402;28;20108;-73
2022/01/26 15:58:17;;;;;;;29.60;16.17;;;6.30;79.80;;;;;;5064945;28;20270;-77
2022/01/26 16:06:20;;;;;;;32.25;18.33;;;6.30;79.90;;;;;;5060376;28;20123;-74
2022/01/26 16:52:23;;;;;;;37.22;22.25;;;6.30;80.00;;;;;;5065144;28;20037;-74
2022/01/26 17:12:43;;;;;;;25.90;15.25;;;6.30;80.30;;;;;;5063411;28;20063;-74
2022/01/26 18:07:14;;;;;;;46.53;26.75;;;6.00;81.00;;;;;;5064849;28;20554;-74
2022/01/26 18:15:20;;;;;;;54.72;32.83;;;5.90;81.10;;;;;;5061995;28;20075;-74
2022/01/26 18:49:42;;;;;;;43.30;24.77;;;5.80;81.50;;;;;;5065705;28;20433;-74
2022/01/26 18:52:08;;;;;;;40.75;23.48;;;5.80;81.40;;;;;;5074982;28;20089;-74
2022/01/26 18:54:40;;;;;;;49.65;28.25;;;5.90;81.50;;;;;;5072433;28;20024;-75
2022/01/26 18:57:08;;;;;;;43.40;24.10;;;5.80;81.40;;;;;;5066750;28;20035;-74
2022/01/26 18:59:35;;;;;;;40.05;22.95;;;5.80;81.40;;;;;;5060281;28;20672;-74
2022/01/26 19:02:01;;;;;;;52.88;28.88;;;5.80;81.40;;;;;;5063528;28;20031;-74
2022/01/26 19:04:35;;;;;;;48.75;27.70;;;5.70;81.40;;;;;;5073418;28;20016;-74
2022/01/26 19:07:02;;;;;;;49.88;28.58;;;5.80;81.50;;;;;;5073449;28;20028;-74
2022/01/26 19:09:32;;;;;;;51.35;28.40;;;5.70;81.60;;;;;;5077628;28;20021;-75
2022/01/26 19:11:59;;;;;;;43.95;23.92;;;5.70;81.50;;;;;;5076269;28;20432;-74
2022/01/26 19:14:31;;;;;;;46.40;25.13;;;5.70;81.60;;;;;;5072885;28;20053;-74
2022/01/26 19:17:09;;;;;;;41.08;21.13;;;5.80;81.60;;;;;;5071335;28;20036;-74
2022/01/26 19:25:14;;;;;;;49.80;26.08;;;5.80;81.40;;;;;;5065658;28;20052;-74